Time;durP1;ratioP1;P1;durP2;ratioP2;P2;SDS_P1;SDS_P2;PMS_P1;PMS_P2;Temp;Humidity;BMP_temperature;BMP_pressure;BME280_temperature;BME280_humidity;BME280_pressure;Samples;Min_cycle;Max_cycle;Signal;HPM_P1;HPM_P2
2022/08/26 00:00:55;;;;;;;14.10;3.83;;;;;;;22.26;56.22;94319.22;4170910;28;20045;-67
2022/08/26 00:02:58;;;;;;;16.92;4.15;;;;;;;22.23;56.50;94309.84;4167889;28;20044;-65
2022/08/26 00:05:00;;;;;;;17.88;4.45;;;;;;;22.23;56.63;94311.72;4171606;28;20057;-66
2022/08/26 00:07:02;;;;;;;14.98;4.20;;;;;;;22.23;56.45;94315.19;4170666;28;20049;-69
2022/08/26 00:09:06;;;;;;;16.58;4.35;;;;;;;22.18;56.66;94307.06;4166648;28;20056;-67
2022/08/26 00:11:09;;;;;;;20.85;4.82;;;;;;;22.17;56.67;94307.31;4176794;28;20052;-66
2022/08/26 00:13:11;;;;;;;18.23;4.50;;;;;;;22.16;56.40;94311.84;4149167;28;20061;-68
2022/08/26 00:15:17;;;;;;;15.75;3.60;;;;;;;22.16;56.40;94306.50;4181396;28;20053;-67
2022/08/26 00:17:20;;;;;;;17.77;4.90;;;;;;;22.18;56.62;94312.41;4167801;28;20068;-67
2022/08/26 00:19:22;;;;;;;14.35;4.05;;;;;;;22.16;56.45;94311.03;4168047;28;20151;-66
2022/08/26 00:21:24;;;;;;;15.85;3.97;;;;;;;22.15;56.71;94304.88;4169119;28;20174;-66
2022/08/26 00:23:26;;;;;;;13.15;4.43;;;;;;;22.17;56.58;94307.31;4151807;28;20112;-67
2022/08/26 00:25:29;;;;;;;;;;;;;;;22.13;56.63;94308.81;4161848;28;20053;-67
2022/08/26 00:27:34;;;;;;;15.23;4.15;;;;;;;22.12;57.03;94309.88;4159629;28;19925;-67
2022/08/26 00:29:36;;;;;;;17.65;4.68;;;;;;;22.08;57.38;94305.03;4163812;28;20104;-66
2022/08/26 00:31:38;;;;;;;13.73;4.38;;;;;;;22.04;57.40;94303.88;4175044;28;20420;-67
2022/08/26 00:33:41;;;;;;;21.52;4.68;;;;;;;21.99;58.11;94300.34;4171244;28;20053;-67
2022/08/26 00:35:46;;;;;;;12.48;4.30;;;;;;;21.89;58.50;94308.94;4178322;28;20089;-67
2022/08/26 00:37:48;;;;;;;11.38;4.32;;;;;;;21.83;58.58;94304.56;4160404;28;20045;-66
2022/08/26 00:39:49;;;;;;;13.25;4.10;;;;;;;21.77;58.59;94301.00;4172097;28;20102;-66
2022/08/26 00:41:53;;;;;;;15.20;4.90;;;;;;;21.76;59.05;94304.69;4172487;28;20089;-67
2022/08/26 00:43:55;;;;;;;17.83;4.15;;;;;;;21.74;59.01;94300.66;4175419;28;20480;-67
2022/08/26 00:46:12;;;;;;;16.10;4.53;;;;;;;21.70;58.92;94312.84;4171311;28;20148;-66
2022/08/26 00:48:17;;;;;;;13.80;4.22;;;;;;;21.68;59.06;94305.06;4151195;28;20068;-68
2022/08/26 00:50:24;;;;;;;17.88;4.00;;;;;;;21.68;58.87;94302.41;4167120;28;20096;-66
2022/08/26 00:52:28;;;;;;;13.77;3.95;;;;;;;21.69;59.03;94312.03;4146064;28;20057;-66
2022/08/26 00:54:34;;;;;;;20.65;4.18;;;;;;;21.67;58.87;94308.81;4175965;28;20044;-65
2022/08/26 00:56:42;;;;;;;14.40;4.22;;;;;;;21.64;58.94;94312.75;4175808;28;20052;-67
2022/08/26 00:58:47;;;;;;;12.90;4.47;;;;;;;21.66;59.07;94313.34;4155178;28;20053;-67
2022/08/26 01:00:49;;;;;;;14.95;4.15;;;;;;;21.67;58.53;94309.59;4159852;28;20546;-67
2022/08/26 01:02:54;;;;;;;19.25;5.00;;;;;;;21.63;58.89;94305.78;4159580;28;20061;-66
2022/08/26 01:04:59;;;;;;;26.80;4.70;;;;;;;21.66;58.51;94304.50;4161100;28;20659;-66
2022/08/26 01:07:04;;;;;;;19.80;5.05;;;;;;;21.69;58.46;94309.38;4163201;28;20045;-65
2022/08/26 01:09:06;;;;;;;14.95;4.55;;;;;;;21.67;58.34;94298.13;4158526;28;20445;-67
2022/08/26 01:11:09;;;;;;;15.50;4.63;;;;;;;21.71;58.62;94306.47;4141037;28;20060;-67
2022/08/26 01:13:11;;;;;;;16.65;3.97;;;;;;;21.71;58.34;94303.81;4156783;28;20057;-67
2022/08/26 01:15:21;;;;;;;16.00;4.40;;;;;;;21.70;58.55;94300.31;4174138;28;20052;-66
2022/08/26 01:17:23;;;;;;;16.08;4.32;;;;;;;21.67;58.25;94296.28;4171772;28;20059;-66
2022/08/26 01:19:30;;;;;;;13.10;5.00;;;;;;;21.70;58.29;94302.19;4171131;28;20077;-67
2022/08/26 01:21:42;;;;;;;18.13;4.05;;;;;;;21.69;58.56;94298.72;4166984;28;20499;-67
2022/08/26 01:23:47;;;;;;;14.45;4.25;;;;;;;21.65;58.41;94293.03;4166604;28;20080;-67
2022/08/26 01:25:54;;;;;;;24.90;4.30;;;;;;;21.63;58.20;94294.31;4175083;28;20057;-65
2022/08/26 01:27:59;;;;;;;13.40;4.00;;;;;;;21.61;58.37;94294.56;4167810;28;20049;-67
2022/08/26 01:30:01;;;;;;;19.10;4.50;;;;;;;21.58;58.23;94291.56;4157132;28;20049;-67
2022/08/26 01:32:04;;;;;;;25.40;4.72;;;;;;;21.57;58.51;94297.94;4165727;28;20049;-65
2022/08/26 01:34:17;;;;;;;16.45;4.47;;;;;;;21.58;58.46;94295.03;4174908;28;20465;-67
2022/08/26 01:36:20;;;;;;;18.02;4.18;;;;;;;21.59;58.27;94293.97;4159234;28;20072;-67
2022/08/26 01:38:22;;;;;;;15.70;4.78;;;;;;;21.55;58.23;94290.16;4170241;28;20103;-69
2022/08/26 01:40:31;;;;;;;19.40;4.47;;;;;;;21.58;58.40;94291.56;4165089;28;20045;-67
2022/08/26 01:42:33;;;;;;;15.98;4.68;;;;;;;21.60;58.62;94292.16;4154320;28;20057;-67
2022/08/26 01:44:43;;;;;;;11.15;4.07;;;;;;;21.60;57.97;94290.28;4172734;28;20076;-67
2022/08/26 01:46:46;;;;;;;21.17;4.25;;;;;;;21.59;57.74;94296.66;4154766;28;20079;-66
2022/08/26 01:48:49;;;;;;;21.17;4.25;;;;;;;21.56;58.10;94301.66;4153549;28;20107;-67
2022/08/26 01:50:56;;;;;;;21.70;4.97;;;;;;;21.56;57.85;94299.00;4155693;28;20231;-67
2022/08/26 01:53:02;;;;;;;15.90;4.05;;;;;;;21.58;58.14;94295.03;4173987;28;20057;-67
2022/08/26 01:55:05;;;;;;;17.55;4.50;;;;;;;21.62;57.65;94292.72;4174844;28;20444;-67
2022/08/26 01:57:07;;;;;;;16.00;4.15;;;;;;;21.64;57.86;94291.44;4186229;28;20056;-68
2022/08/26 01:59:13;;;;;;;19.00;4.47;;;;;;;21.65;57.82;94293.03;4174720;28;20287;-67
2022/08/26 02:01:16;;;;;;;12.38;4.43;;;;;;;21.65;58.34;94295.69;4141037;28;20061;-67
2022/08/26 02:03:21;;;;;;;20.02;4.60;;;;;;;21.58;58.68;94297.72;4147253;28;20508;-66
2022/08/26 02:05:22;;;;;;;23.60;4.47;;;;;;;21.48;58.84;94297.50;4163271;28;20517;-67
2022/08/26 02:07:25;;;;;;;17.92;4.97;;;;;;;21.34;59.21;94294.28;4167567;28;20048;-68
2022/08/26 02:09:27;;;;;;;18.60;4.47;;;;;;;21.30;59.69;94295.00;4174587;28;20072;-66
2022/08/26 02:11:32;;;;;;;18.02;4.63;;;;;;;21.30;59.83;94287.00;4173437;28;20098;-66
2022/08/26 02:13:41;;;;;;;13.55;4.28;;;;;;;21.35;59.95;94289.75;4148657;28;20061;-68
2022/08/26 02:15:43;;;;;;;19.83;4.60;;;;;;;21.39;59.54;94290.91;4174588;28;20076;-66
2022/08/26 02:17:46;;;;;;;13.50;4.20;;;;;;;21.42;59.43;94287.78;4163717;28;20160;-68
2022/08/26 02:19:53;;;;;;;20.40;4.45;;;;;;;21.45;58.99;94295.31;4157038;28;20956;-68
2022/08/26 02:21:58;;;;;;;14.95;4.28;;;;;;;21.45;58.99;94300.66;4162426;28;20056;-67
2022/08/26 02:24:12;;;;;;;19.45;4.40;;;;;;;21.44;59.11;94291.81;4156775;28;20068;-66
2022/08/26 02:26:18;;;;;;;13.00;4.03;;;;;;;21.46;58.92;94286.28;4174760;28;20053;-66
2022/08/26 02:28:20;;;;;;;14.57;4.40;;;;;;;21.45;59.33;94290.00;4153793;28;20053;-69
2022/08/26 02:30:30;;;;;;;17.75;4.35;;;;;;;21.46;59.39;94286.28;4163038;28;20118;-66
2022/08/26 02:32:32;;;;;;;14.07;4.05;;;;;;;21.45;59.11;94287.31;4157141;28;20425;-66
2022/08/26 02:34:35;;;;;;;15.32;5.05;;;;;;;21.43;59.70;94289.41;4158715;28;20081;-66
2022/08/26 02:36:38;;;;;;;19.55;5.03;;;;;;;21.43;59.47;94284.09;4161225;28;20070;-65
2022/08/26 02:38:40;;;;;;;17.33;5.20;;;;;;;21.26;60.11;94287.44;4161480;28;20053;-67
2022/08/26 02:40:43;;;;;;;15.23;4.95;;;;;;;21.17;60.56;94291.53;4162453;28;20361;-67
2022/08/26 02:42:45;;;;;;;16.77;4.70;;;;;;;21.14;60.85;94286.66;4161732;28;20148;-67
2022/08/26 02:44:48;;;;;;;17.85;4.72;;;;;;;21.19;60.79;94291.31;4161817;28;20053;-69
2022/08/26 02:46:51;;;;;;;16.48;4.97;;;;;;;21.18;60.32;94295.81;4143888;28;20552;-66
2022/08/26 02:48:54;;;;;;;16.85;4.20;;;;;;;21.17;60.67;94288.88;4177697;28;20053;-67
2022/08/26 02:51:00;;;;;;;20.27;4.75;;;;;;;21.20;60.77;94293.72;4176172;28;20066;-67
2022/08/26 02:53:03;;;;;;;16.30;5.00;;;;;;;21.24;60.38;94289.53;4167299;28;20512;-67
2022/08/26 02:55:07;;;;;;;16.27;4.78;;;;;;;21.24;60.16;94294.06;4161675;28;20127;-65
2022/08/26 02:57:10;;;;;;;16.07;4.37;;;;;;;21.26;60.46;94295.44;4163597;28;20052;-68
2022/08/26 02:59:12;;;;;;;12.88;5.07;;;;;;;21.25;60.38;94293.00;4178089;28;20472;-67
2022/08/26 03:01:29;;;;;;;21.58;4.93;;;;;;;21.10;60.99;94298.84;4171229;28;20049;-67
2022/08/26 03:03:31;;;;;;;18.40;5.55;;;;;;;20.64;62.17;94300.47;4153760;28;20525;-67
2022/08/26 03:05:34;;;;;;;23.23;5.25;;;;;;;20.11;63.52;94295.97;4176196;28;20107;-66
2022/08/26 03:07:36;;;;;;;17.80;5.03;;;;;;;19.87;65.12;94301.22;4163704;28;20504;-67
2022/08/26 03:09:38;;;;;;;21.63;5.18;;;;;;;19.97;64.80;94296.19;4135201;28;20054;-66
2022/08/26 03:11:40;;;;;;;17.95;4.40;;;;;;;20.16;64.03;94298.78;4171304;28;20048;-66
2022/08/26 03:13:44;;;;;;;;;;;;;;;20.33;63.43;94302.41;4176009;28;20139;-66
2022/08/26 03:15:46;;;;;;;17.83;4.75;;;;;;;20.44;62.98;94298.13;4176627;28;19999;-67
2022/08/26 03:17:48;;;;;;;21.55;4.88;;;;;;;20.54;62.66;94306.38;4176939;28;20049;-68
2022/08/26 03:19:51;;;;;;;16.15;5.05;;;;;;;20.61;62.36;94299.09;4176387;28;20071;-67
2022/08/26 03:21:58;;;;;;;17.65;4.65;;;;;;;20.70;61.41;94304.09;4157818;28;20148;-67
2022/08/26 03:23:59;;;;;;;15.57;4.13;;;;;;;20.75;60.91;94301.53;4168386;28;20472;-67
2022/08/26 03:26:02;;;;;;;15.55;4.53;;;;;;;20.81;60.14;94300.59;4176394;28;20217;-67
2022/08/26 03:28:03;;;;;;;17.92;5.15;;;;;;;20.84;60.31;94292.97;4175561;28;20126;-67
2022/08/26 03:32:30;;;;;;;24.60;4.35;;;;;;;20.94;59.45;94303.03;4175945;28;20053;-68
2022/08/26 03:34:32;;;;;;;17.98;4.75;;;;;;;20.99;58.91;94291.66;4158108;28;20461;-67
2022/08/26 03:36:34;;;;;;;26.27;5.32;;;;;;;21.03;58.69;94293.63;4146310;28;20386;-67
2022/08/26 03:38:36;;;;;;;19.67;4.78;;;;;;;21.10;58.53;94298.00;4174717;28;20053;-67
2022/08/26 03:40:38;;;;;;;20.00;4.65;;;;;;;21.13;58.60;94293.03;4157728;28;20057;-66
2022/08/26 03:42:41;;;;;;;28.55;5.32;;;;;;;21.13;58.56;94297.56;4173828;28;20044;-67
2022/08/26 03:44:45;;;;;;;11.65;4.90;;;;;;;21.12;58.82;94290.59;4157559;28;20045;-66
2022/08/26 03:46:48;;;;;;;14.40;4.85;;;;;;;21.14;58.80;94293.84;4174401;28;20106;-67
2022/08/26 03:48:50;;;;;;;17.77;4.18;;;;;;;21.15;58.83;94293.63;4173640;28;20453;-68
2022/08/26 03:50:52;;;;;;;24.98;5.63;;;;;;;21.15;58.91;94292.81;4176014;28;20052;-68
2022/08/26 03:52:55;;;;;;;19.92;4.85;;;;;;;21.10;59.15;94295.34;4175498;28;20480;-68
2022/08/26 03:54:57;;;;;;;20.45;4.20;;;;;;;20.94;59.57;94295.03;4176166;28;20439;-67
2022/08/26 03:56:59;;;;;;;19.42;4.90;;;;;;;20.79;59.84;94295.50;4159932;28;20598;-67
2022/08/26 03:59:01;;;;;;;21.58;4.78;;;;;;;20.81;59.66;94297.94;4173611;28;20056;-67
2022/08/26 04:01:03;;;;;;;18.45;4.53;;;;;;;20.88;59.32;94300.47;4158411;28;20164;-67
2022/08/26 04:03:05;;;;;;;19.02;5.15;;;;;;;20.97;58.79;94299.06;4159635;28;20129;-67
2022/08/26 04:05:16;;;;;;;16.77;4.72;;;;;;;21.04;58.99;94295.25;4160470;28;20453;-65
2022/08/26 04:07:18;;;;;;;25.42;4.60;;;;;;;21.09;58.46;94291.09;4173796;28;20148;-66
2022/08/26 04:09:20;;;;;;;18.80;4.78;;;;;;;21.13;58.64;94289.56;4176423;28;20473;-66
2022/08/26 04:11:29;;;;;;;21.10;5.38;;;;;;;21.17;58.31;94298.72;4175913;28;20123;-69
2022/08/26 04:13:34;;;;;;;17.95;4.20;;;;;;;21.21;58.09;94294.56;4172136;28;20057;-67
2022/08/26 04:15:38;;;;;;;17.77;5.13;;;;;;;21.22;57.62;94296.16;4175388;28;20520;-66
2022/08/26 04:17:40;;;;;;;28.25;5.50;;;;;;;21.24;57.78;94296.72;4175437;28;20051;-66
2022/08/26 04:19:42;;;;;;;17.30;4.68;;;;;;;21.27;57.75;94289.09;4175796;28;20504;-68
2022/08/26 04:21:45;;;;;;;23.33;5.15;;;;;;;21.30;57.30;94292.31;4174655;28;20420;-66
2022/08/26 04:23:48;;;;;;;20.70;4.60;;;;;;;21.33;57.22;94297.97;4157167;28;20045;-70
2022/08/26 04:25:50;;;;;;;19.50;4.28;;;;;;;21.37;57.13;94290.31;4175084;28;20049;-64
2022/08/26 04:27:52;;;;;;;22.27;5.53;;;;;;;21.38;57.20;94291.94;4174289;28;20053;-67
2022/08/26 04:29:54;;;;;;;20.15;4.10;;;;;;;21.38;57.21;94291.94;4175695;28;20053;-67
2022/08/26 04:31:56;;;;;;;20.90;5.53;;;;;;;21.42;56.81;94293.13;4175222;28;20091;-67
2022/08/26 04:33:58;;;;;;;14.75;4.57;;;;;;;21.44;57.15;94291.03;4174870;28;20045;-65
2022/08/26 04:36:01;;;;;;;21.33;4.63;;;;;;;21.47;56.87;94293.22;4174972;28;20477;-67
2022/08/26 04:38:03;;;;;;;18.98;5.28;;;;;;;21.47;56.94;94290.56;4173369;28;20440;-66
2022/08/26 04:40:08;;;;;;;21.77;5.13;;;;;;;21.48;56.84;94286.84;4174896;28;20044;-66
2022/08/26 04:42:12;;;;;;;22.58;4.80;;;;;;;21.52;56.69;94292.53;4173845;28;20288;-67
2022/08/26 04:44:15;;;;;;;14.77;4.53;;;;;;;21.53;56.80;94294.97;4167745;28;20270;-66
2022/08/26 04:46:23;;;;;;;13.75;4.53;;;;;;;21.50;56.66;94292.75;4173270;28;20045;-66
2022/08/26 04:48:27;;;;;;;14.88;4.22;;;;;;;21.51;56.95;94298.88;4174831;28;20080;-66
2022/08/26 04:50:29;;;;;;;17.65;4.95;;;;;;;21.53;56.91;94291.47;4173804;28;20045;-69
2022/08/26 04:52:32;;;;;;;21.40;4.63;;;;;;;21.55;56.98;94289.38;4174590;28;20041;-67
2022/08/26 04:54:34;;;;;;;23.27;5.28;;;;;;;21.57;57.11;94292.59;4175943;28;20459;-66
2022/08/26 04:56:40;;;;;;;20.52;4.57;;;;;;;21.63;57.09;94292.47;4175781;28;20302;-66
2022/08/26 04:58:43;;;;;;;21.23;4.82;;;;;;;21.70;56.62;94291.53;4169255;28;20057;-67
2022/08/26 05:00:49;;;;;;;20.90;4.50;;;;;;;21.75;56.73;94294.31;4175502;28;20057;-67
2022/08/26 05:02:51;;;;;;;17.40;4.93;;;;;;;21.79;56.49;94295.41;4170926;28;20045;-67
2022/08/26 05:04:53;;;;;;;19.45;5.28;;;;;;;21.79;56.54;94290.09;4158524;28;20060;-67
2022/08/26 05:06:55;;;;;;;15.25;4.85;;;;;;;21.81;56.12;94299.47;4158201;28;20053;-68
2022/08/26 05:09:03;;;;;;;20.30;4.53;;;;;;;21.86;56.04;94290.75;4172796;28;20048;-66
2022/08/26 05:11:07;;;;;;;17.83;5.55;;;;;;;21.81;55.84;94294.16;4142246;28;20072;-67
2022/08/26 05:13:11;;;;;;;19.35;5.15;;;;;;;21.82;55.72;94294.94;4150624;28;20175;-67
2022/08/26 05:15:16;;;;;;;32.70;5.28;;;;;;;21.81;55.38;94299.47;4144509;28;20108;-66
2022/08/26 05:17:18;;;;;;;16.33;5.00;;;;;;;21.82;55.27;94295.75;4159627;28;20685;-67
2022/08/26 05:19:20;;;;;;;17.55;4.85;;;;;;;21.86;55.60;94301.44;4159641;28;20053;-67
2022/08/26 05:21:24;;;;;;;19.88;4.80;;;;;;;21.93;55.52;94302.09;4159156;28;20049;-66
2022/08/26 05:23:30;;;;;;;25.40;5.25;;;;;;;21.97;55.18;94305.09;4142689;28;20057;-67
2022/08/26 05:25:37;;;;;;;15.52;4.82;;;;;;;22.03;55.00;94296.13;4170423;28;20049;-65
2022/08/26 05:27:40;;;;;;;19.17;5.40;;;;;;;22.09;54.75;94297.81;4150790;28;20053;-66
2022/08/26 05:29:42;;;;;;;17.35;5.35;;;;;;;22.15;55.39;94307.53;4166460;28;20095;-67
2022/08/26 05:31:44;;;;;;;22.10;5.00;;;;;;;22.18;55.09;94298.25;4174356;28;20048;-64
2022/08/26 05:33:46;;;;;;;16.00;5.35;;;;;;;22.20;55.02;94317.47;4157323;28;20119;-67
2022/08/26 05:35:48;;;;;;;20.13;5.88;;;;;;;22.26;54.99;94312.03;4175087;28;20074;-64
2022/08/26 05:37:50;;;;;;;18.23;4.78;;;;;;;22.27;54.57;94312.84;4154373;28;20512;-64
2022/08/26 05:39:52;;;;;;;16.83;4.63;;;;;;;22.30;54.58;94304.34;4173182;28;20480;-68
2022/08/26 05:41:54;;;;;;;17.85;4.90;;;;;;;22.35;54.30;94309.78;4174125;28;20048;-66
2022/08/26 05:43:58;;;;;;;22.70;5.05;;;;;;;22.33;54.41;94309.22;4174612;28;20080;-66
2022/08/26 05:46:05;;;;;;;21.67;5.03;;;;;;;22.35;54.19;94314.28;4173313;28;20061;-67
2022/08/26 05:48:08;;;;;;;20.75;5.43;;;;;;;22.40;54.50;94311.72;4156510;28;20516;-67
2022/08/26 05:50:10;;;;;;;16.92;5.38;;;;;;;22.46;54.64;94311.56;4174231;28;20565;-67
2022/08/26 05:52:12;;;;;;;22.90;5.53;;;;;;;22.53;54.59;94310.59;4172757;28;20067;-70
2022/08/26 05:54:15;;;;;;;15.85;5.65;;;;;;;22.57;54.05;94306.41;4174782;28;20061;-67
2022/08/26 05:56:24;;;;;;;17.95;5.03;;;;;;;22.60;54.33;94317.38;4156455;28;20081;-67
2022/08/26 05:58:27;;;;;;;14.85;5.72;;;;;;;22.63;53.98;94313.44;4173874;28;20559;-67
2022/08/26 06:00:28;;;;;;;18.48;5.50;;;;;;;22.66;53.87;94311.06;4165635;28;20289;-66
2022/08/26 06:02:30;;;;;;;18.73;5.45;;;;;;;22.70;54.17;94311.41;4174631;28;20053;-67
2022/08/26 06:04:33;;;;;;;18.30;5.13;;;;;;;22.73;53.90;94315.44;4174805;28;20112;-67
2022/08/26 06:06:40;;;;;;;17.05;5.30;;;;;;;22.76;53.73;94318.44;4174362;28;20470;-67
2022/08/26 06:08:44;;;;;;;16.92;5.18;;;;;;;22.78;53.77;94316.34;4157430;28;20172;-72
2022/08/26 06:10:48;;;;;;;20.02;5.72;;;;;;;22.81;54.11;94317.69;4175039;28;20062;-72
2022/08/26 06:12:51;;;;;;;16.63;5.43;;;;;;;22.81;53.76;94321.19;4173918;28;20447;-66
2022/08/26 06:14:53;;;;;;;23.80;5.80;;;;;;;22.82;54.12;94319.31;4174839;28;20441;-67
2022/08/26 06:16:55;;;;;;;22.50;5.33;;;;;;;22.82;54.04;94317.47;4174545;28;20080;-67
2022/08/26 06:19:01;;;;;;;26.23;5.65;;;;;;;22.88;53.75;94319.13;4176898;28;20699;-68
2022/08/26 06:21:24;;;;;;;24.17;5.57;;;;;;;22.92;54.08;94319.47;4172685;28;20358;-67
2022/08/26 06:25:51;;;;;;;18.50;5.65;;;;;;;23.19;57.92;94326.81;4177523;28;20076;-65
2022/08/26 06:27:53;;;;;;;17.58;4.82;;;;;;;23.25;58.41;94323.16;4156430;28;20054;-76
2022/08/26 06:29:55;;;;;;;12.70;5.18;;;;;;;23.31;59.49;94327.50;4174750;28;20049;-70
2022/08/26 06:31:57;;;;;;;21.02;5.05;;;;;;;23.44;59.81;94321.00;4175583;28;20128;-78
2022/08/26 06:33:59;;;;;;;23.27;5.65;;;;;;;23.56;59.90;94326.22;4177907;28;20045;-81
2022/08/26 06:36:02;;;;;;;22.45;6.10;;;;;;;23.61;58.74;94327.09;4158748;28;20542;-82
2022/08/26 06:38:05;;;;;;;24.02;5.75;;;;;;;23.76;59.39;94333.72;4179489;28;20443;-65
2022/08/26 06:40:10;;;;;;;22.92;5.80;;;;;;;23.85;58.67;94332.19;4156513;28;20045;-76
2022/08/26 06:42:12;;;;;;;24.00;6.07;;;;;;;23.85;57.94;94338.34;4173528;28;20055;-67
2022/08/26 06:44:14;;;;;;;24.10;6.20;;;;;;;23.90;58.78;94334.94;4156663;28;20061;-68
2022/08/26 06:46:18;;;;;;;22.58;6.63;;;;;;;23.91;58.62;94329.31;4173918;28;20045;-68
2022/08/26 06:48:20;;;;;;;;;;;;;;;23.95;58.45;94332.31;4173736;28;20132;-67
2022/08/26 06:50:22;;;;;;;24.52;6.15;;;;;;;24.00;58.72;94336.91;4173104;28;19925;-68
2022/08/26 06:52:25;;;;;;;29.55;6.05;;;;;;;24.00;58.52;94328.88;4173341;28;20049;-69
2022/08/26 06:54:30;;;;;;;23.50;6.38;;;;;;;24.07;58.04;94337.50;4159037;28;20126;-74
2022/08/26 06:56:37;;;;;;;23.25;6.50;;;;;;;24.12;58.37;94333.03;4170737;28;20437;-68
2022/08/26 06:58:40;;;;;;;26.55;6.85;;;;;;;24.20;58.04;94337.13;4168438;28;20052;-69
2022/08/26 07:00:42;;;;;;;16.23;5.70;;;;;;;24.09;54.45;94348.78;4173909;28;20083;-66
2022/08/26 07:02:48;;;;;;;20.48;6.68;;;;;;;24.15;57.60;94334.38;4141245;28;20049;-68
2022/08/26 07:04:50;;;;;;;27.17;8.18;;;;;;;24.22;57.79;94331.50;4158398;28;20064;-67
2022/08/26 07:06:55;;;;;;;22.90;6.22;;;;;;;24.33;58.09;94328.69;4157248;28;20057;-67
2022/08/26 07:09:03;;;;;;;38.97;7.47;;;;;;;24.47;57.63;94334.41;4160632;28;20065;-73
2022/08/26 07:11:07;;;;;;;17.23;5.88;;;;;;;24.53;56.42;94329.97;4183321;28;20155;-70
2022/08/26 07:13:09;;;;;;;;;;;;;;;24.55;55.97;94335.88;4174164;28;20045;-74
2022/08/26 07:15:12;;;;;;;16.23;6.18;;;;;;;24.51;53.87;94335.56;4175729;28;19964;-68
2022/08/26 07:17:15;;;;;;;22.27;7.03;;;;;;;24.52;54.10;94339.88;4162726;28;20073;-67
2022/08/26 07:19:19;;;;;;;;;;;;;;;24.55;53.65;94341.22;4161845;28;20049;-82
2022/08/26 07:21:31;;;;;;;19.05;6.25;;;;;;;24.59;53.73;94338.84;4152178;28;20011;-70
2022/08/26 07:23:34;;;;;;;21.73;8.05;;;;;;;24.49;51.64;94336.88;4163428;28;20053;-68
2022/08/26 07:25:40;;;;;;;22.85;6.25;;;;;;;24.42;53.94;94338.94;4168483;28;20119;-67
2022/08/26 07:27:42;;;;;;;17.23;6.10;;;;;;;24.11;52.21;94339.47;4165027;28;20054;-67
2022/08/26 07:29:44;;;;;;;30.33;7.43;;;;;;;24.08;57.33;94342.63;4158291;28;20501;-64
2022/08/26 07:31:46;;;;;;;20.27;6.95;;;;;;;24.16;57.21;94346.72;4167390;28;20484;-65
2022/08/26 07:33:49;;;;;;;23.65;6.53;;;;;;;24.25;56.93;94344.41;4174211;28;20139;-69
2022/08/26 07:35:51;;;;;;;22.83;6.85;;;;;;;24.41;55.90;94339.97;4146368;28;20160;-66
2022/08/26 07:37:53;;;;;;;21.25;6.20;;;;;;;24.45;54.92;94341.91;4167195;28;20063;-67
2022/08/26 07:39:57;;;;;;;20.83;5.90;;;;;;;24.49;55.44;94336.88;4173679;28;20076;-68
2022/08/26 07:42:02;;;;;;;18.63;5.82;;;;;;;24.66;53.63;94340.22;4169853;28;20136;-69
2022/08/26 07:44:09;;;;;;;25.60;6.18;;;;;;;24.72;53.31;94336.53;4146042;28;20046;-69
2022/08/26 07:46:18;;;;;;;28.20;5.68;;;;;;;24.80;51.90;94339.78;4161693;28;20045;-69
2022/08/26 07:48:28;;;;;;;16.70;5.68;;;;;;;24.89;50.61;94333.72;4168056;28;20123;-68
2022/08/26 07:50:31;;;;;;;20.00;5.30;;;;;;;24.96;49.52;94343.41;4170822;28;20089;-69
2022/08/26 07:52:51;;;;;;;18.67;5.03;;;;;;;24.93;49.58;94336.69;4175144;28;20578;-67
2022/08/26 07:54:59;;;;;;;23.05;5.47;;;;;;;24.99;49.33;94342.88;4176103;28;20076;-69
2022/08/26 07:57:00;;;;;;;19.70;4.95;;;;;;;25.01;49.38;94348.78;4148138;28;20057;-69
2022/08/26 07:59:09;;;;;;;17.30;5.80;;;;;;;25.01;49.15;94340.75;4165929;28;20504;-70
2022/08/26 08:01:15;;;;;;;16.13;5.40;;;;;;;24.99;48.97;94348.25;4157332;28;20148;-73
2022/08/26 08:03:19;;;;;;;19.27;6.28;;;;;;;24.96;48.83;94344.22;4162258;28;20125;-68
2022/08/26 08:05:22;;;;;;;20.92;5.72;;;;;;;24.97;49.21;94340.44;4158969;28;20106;-69
2022/08/26 08:07:34;;;;;;;24.05;5.32;;;;;;;25.01;49.89;94346.91;4158949;28;20089;-65
2022/08/26 08:09:48;;;;;;;24.13;5.55;;;;;;;25.08;49.51;94341.31;4175146;28;20048;-69
2022/08/26 08:11:50;;;;;;;18.25;5.97;;;;;;;25.16;49.29;94342.72;4165388;28;20048;-68
2022/08/26 08:13:53;;;;;;;26.50;6.80;;;;;;;25.23;49.63;94346.00;4169168;28;20075;-68
2022/08/26 08:15:57;;;;;;;25.65;6.15;;;;;;;25.31;48.95;94348.22;4164938;28;20180;-68
2022/08/26 08:17:59;;;;;;;22.67;5.95;;;;;;;25.33;48.90;94344.19;4147318;28;20081;-71
2022/08/26 08:20:03;;;;;;;18.73;5.85;;;;;;;25.38;48.33;94347.97;4175918;28;20051;-68
2022/08/26 08:22:06;;;;;;;21.08;5.90;;;;;;;25.38;48.10;94346.09;4168936;28;20296;-69
2022/08/26 08:24:20;;;;;;;22.65;6.80;;;;;;;25.44;48.43;94346.94;4165601;28;20147;-68
2022/08/26 08:26:24;;;;;;;26.92;6.43;;;;;;;25.50;48.11;94340.53;4165697;28;20048;-68
2022/08/26 08:28:26;;;;;;;20.33;5.85;;;;;;;25.51;48.10;94337.59;4163485;28;20069;-68
2022/08/26 08:30:28;;;;;;;24.40;5.88;;;;;;;25.51;48.31;94344.81;4164602;28;20132;-68
2022/08/26 08:32:30;;;;;;;25.27;6.05;;;;;;;25.52;47.78;94339.19;4170473;28;20076;-69
2022/08/26 08:34:32;;;;;;;21.08;6.00;;;;;;;25.55;47.66;94345.91;4174404;28;20088;-67
2022/08/26 08:36:35;;;;;;;18.63;5.68;;;;;;;25.65;46.93;94342.47;4172379;28;20443;-69
2022/08/26 08:38:37;;;;;;;18.48;6.13;;;;;;;25.69;47.17;94339.00;4149409;28;20054;-67
2022/08/26 08:40:40;;;;;;;19.15;5.85;;;;;;;25.79;47.28;94340.13;4168041;28;20051;-69
2022/08/26 08:42:53;;;;;;;30.27;6.72;;;;;;;25.73;46.92;94333.94;4152811;28;20060;-68
2022/08/26 08:44:58;;;;;;;21.50;5.88;;;;;;;25.61;47.01;94330.66;4171673;28;20063;-68
2022/08/26 08:47:05;;;;;;;17.00;5.55;;;;;;;25.43;46.45;94337.28;4175916;28;20463;-68
2022/08/26 08:49:07;;;;;;;18.58;5.60;;;;;;;25.32;47.41;94334.56;4169946;28;20053;-69
2022/08/26 08:51:46;;;;;;;20.15;5.50;;;;;;;25.19;47.20;94331.47;4147436;28;20073;-68
2022/08/26 08:53:51;;;;;;;28.88;5.78;;;;;;;25.14;47.37;94326.91;4146479;28;20521;-67
2022/08/26 08:56:19;;;;;;;21.05;6.05;;;;;;;25.21;47.49;94332.06;4153373;28;20116;-68
2022/08/26 08:58:50;;;;;;;17.77;5.40;;;;;;;25.23;48.39;94324.56;4166043;28;20053;-69
2022/08/26 09:01:34;;;;;;;17.83;6.25;;;;;;;25.46;48.66;94334.88;4158726;28;20077;-70
2022/08/26 09:03:49;;;;;;;16.42;5.88;;;;;;;25.57;47.18;94329.56;4163051;28;20108;-69
2022/08/26 09:05:52;;;;;;;23.73;5.30;;;;;;;25.57;45.92;94322.31;4163321;28;20528;-68
2022/08/26 09:08:02;;;;;;;26.33;6.72;;;;;;;25.62;46.88;94316.16;4172870;28;20049;-68
2022/08/26 09:10:30;;;;;;;16.10;5.18;;;;;;;25.84;47.00;94316.81;4145453;28;20149;-67
2022/08/26 09:12:33;;;;;;;13.93;5.07;;;;;;;26.01;45.85;94321.19;4162862;28;20083;-67
2022/08/26 09:14:35;;;;;;;25.02;5.60;;;;;;;26.26;45.22;94315.03;4172664;28;20091;-68
2022/08/26 09:16:49;;;;;;;22.40;5.28;;;;;;;26.49;45.05;94309.16;4174939;28;20091;-68
2022/08/26 09:19:13;;;;;;;23.48;5.53;;;;;;;26.70;44.01;94307.31;4174739;28;20127;-68
2022/08/26 09:21:24;;;;;;;16.33;5.90;;;;;;;26.90;44.02;94306.47;4175493;28;20049;-69
2022/08/26 09:23:26;;;;;;;28.92;5.28;;;;;;;27.07;43.29;94302.69;4156410;28;20053;-67
2022/08/26 09:25:28;;;;;;;14.18;4.60;;;;;;;27.16;41.61;94296.47;4174538;28;20056;-68
2022/08/26 09:27:40;;;;;;;14.45;4.50;;;;;;;27.25;41.32;94299.44;4162493;28;20155;-69
2022/08/26 09:29:44;;;;;;;20.33;4.80;;;;;;;27.37;41.29;94288.41;4163184;28;20117;-68
2022/08/26 09:31:52;;;;;;;16.20;4.90;;;;;;;27.47;40.31;94287.53;4165895;28;20057;-69
2022/08/26 09:34:20;;;;;;;24.33;5.43;;;;;;;27.25;38.40;94294.06;4146336;28;20520;-69
2022/08/26 09:36:37;;;;;;;18.38;5.72;;;;;;;26.87;36.42;94292.78;4174364;28;20045;-69
2022/08/26 09:38:42;;;;;;;12.23;4.88;;;;;;;27.01;36.89;94290.34;4183429;28;20052;-70
2022/08/26 09:40:59;;;;;;;15.50;5.03;;;;;;;26.55;37.55;94293.84;4169022;28;20390;-69
2022/08/26 09:43:12;;;;;;;18.58;5.32;;;;;;;26.49;38.29;94295.72;4161187;28;20282;-69
2022/08/26 09:45:14;;;;;;;17.70;5.15;;;;;;;26.64;37.91;94299.53;4154610;28;20480;-68
2022/08/26 09:47:20;;;;;;;;;;;;;;;26.59;39.16;94299.50;4173471;28;20055;-68